createdAt,value
2023-01-25T00:01:45.758Z,2.85
2023-01-25T00:04:13.105Z,4.03
2023-01-25T00:06:39.775Z,3.67
2023-01-25T00:09:06.474Z,4.25
2023-01-25T00:11:33.243Z,3.35
2023-01-25T00:14:02.259Z,3.45
2023-01-25T00:16:28.961Z,3.80
2023-01-25T00:18:55.755Z,3.45
2023-01-25T00:21:24.198Z,3.80
2023-01-25T00:23:51.654Z,3.92
2023-01-25T00:26:18.661Z,3.65
2023-01-25T00:28:52.471Z,4.13
2023-01-25T00:31:27.884Z,3.53
2023-01-25T00:34:23.376Z,3.25
2023-01-25T00:36:57.616Z,4.18
2023-01-25T00:39:26.391Z,3.95
2023-01-25T00:41:53.487Z,3.88
2023-01-25T00:44:20.189Z,5.28
2023-01-25T00:46:47.163Z,3.92
2023-01-25T00:49:25.675Z,4.82
2023-01-25T00:51:53.950Z,4.65
2023-01-25T00:54:23.099Z,4.30
2023-01-25T00:56:52.486Z,4.10
2023-01-25T00:59:19.287Z,4.03
2023-01-25T01:01:46.615Z,3.55
2023-01-25T01:04:13.582Z,4.18
2023-01-25T01:06:41.384Z,3.83
2023-01-25T01:09:17.221Z,4.88
2023-01-25T01:11:44.033Z,4.15
2023-01-25T01:14:11.403Z,4.15
2023-01-25T01:16:38.130Z,4.18
2023-01-25T01:19:05.212Z,3.95
2023-01-25T01:21:31.981Z,4.38
2023-01-25T01:23:58.888Z,4.47
2023-01-25T01:26:25.711Z,4.18
2023-01-25T01:28:52.574Z,4.72
2023-01-25T01:31:21.706Z,3.90
2023-01-25T01:33:54.170Z,4.78
2023-01-25T01:36:23.804Z,3.90
2023-01-25T01:38:50.491Z,4.65
2023-01-25T01:41:17.516Z,5.00
2023-01-25T01:43:44.394Z,4.90
2023-01-25T01:46:20.396Z,4.32
2023-01-25T01:48:57.602Z,6.05
2023-01-25T01:51:41.187Z,5.00
2023-01-25T01:54:19.221Z,4.75
2023-01-25T01:57:06.817Z,5.47
2023-01-25T01:59:44.451Z,5.55
2023-01-25T02:02:11.210Z,5.35
2023-01-25T02:04:38.055Z,5.75
2023-01-25T02:07:30.160Z,5.57
2023-01-25T02:09:57.094Z,5.32
2023-01-25T02:12:24.121Z,6.05
2023-01-25T02:14:52.948Z,6.05
2023-01-25T02:17:24.299Z,6.40
2023-01-25T02:20:01.440Z,5.53
2023-01-25T02:22:41.077Z,5.85
2023-01-25T02:25:12.420Z,6.35
2023-01-25T02:27:42.388Z,6.80
2023-01-25T02:30:10.040Z,6.05
2023-01-25T02:32:37.249Z,6.43
2023-01-25T02:35:04.615Z,6.60
2023-01-25T02:37:31.552Z,6.78
2023-01-25T02:39:58.255Z,7.07
2023-01-25T02:42:25.046Z,7.20
2023-01-25T02:44:52.951Z,7.50
2023-01-25T02:47:19.649Z,7.72
2023-01-25T02:49:46.314Z,8.70
2023-01-25T02:52:12.958Z,7.78
2023-01-25T02:54:40.764Z,8.60
2023-01-25T02:57:10.266Z,8.95
2023-01-25T02:59:37.019Z,8.55
2023-01-25T03:02:03.708Z,7.65
2023-01-25T03:04:30.351Z,7.70
2023-01-25T03:06:57.049Z,8.82
2023-01-25T03:09:23.739Z,8.63
2023-01-25T03:11:50.428Z,8.95
2023-01-25T03:14:17.136Z,9.23
2023-01-25T03:16:43.793Z,8.82
2023-01-25T03:19:11.190Z,8.52
2023-01-25T03:21:37.859Z,10.00
2023-01-25T03:24:05.797Z,8.60
2023-01-25T03:26:52.421Z,9.73
2023-01-25T03:29:19.300Z,9.30
2023-01-25T03:31:46.534Z,8.32
2023-01-25T03:34:13.255Z,10.05
2023-01-25T03:36:39.948Z,10.07
2023-01-25T03:39:06.707Z,8.55
2023-01-25T03:41:33.376Z,9.10
2023-01-25T03:44:00.164Z,8.88
2023-01-25T03:46:26.917Z,8.88
2023-01-25T03:48:53.644Z,9.43
2023-01-25T03:51:20.348Z,8.43
2023-01-25T03:53:47.029Z,9.32
2023-01-25T03:56:19.986Z,9.73
2023-01-25T03:58:47.239Z,9.23
2023-01-25T04:01:14.149Z,11.43
2023-01-25T04:03:40.935Z,8.75
2023-01-25T04:06:07.901Z,9.38
2023-01-25T04:08:34.816Z,10.48
2023-01-25T04:11:03.828Z,11.35
2023-01-25T04:13:30.541Z,9.63
2023-01-25T04:15:57.377Z,9.85
2023-01-25T04:18:24.032Z,10.38
2023-01-25T04:20:54.570Z,10.55
2023-01-25T04:23:21.810Z,9.73
2023-01-25T04:25:59.449Z,11.88
2023-01-25T04:28:26.573Z,11.15
2023-01-25T04:30:54.500Z,10.48
2023-01-25T04:33:21.688Z,10.18
2023-01-25T04:35:48.401Z,9.85
2023-01-25T04:38:15.120Z,9.32
2023-01-25T04:40:44.153Z,11.15
2023-01-25T04:43:12.788Z,10.52
2023-01-25T04:45:39.593Z,9.82
2023-01-25T04:48:10.577Z,9.95
2023-01-25T04:50:38.125Z,10.38
2023-01-25T04:53:05.681Z,8.02
2023-01-25T04:55:33.717Z,12.02
2023-01-25T04:58:01.430Z,9.90
2023-01-25T05:00:29.077Z,8.50
2023-01-25T05:02:56.006Z,10.55
2023-01-25T05:05:22.682Z,9.05
2023-01-25T05:07:49.392Z,10.57
2023-01-25T05:10:16.141Z,8.75
2023-01-25T05:12:42.827Z,9.57
2023-01-25T05:15:10.207Z,8.23
2023-01-25T05:17:37.026Z,9.07
2023-01-25T05:20:04.295Z,8.32
2023-01-25T05:22:32.201Z,8.85
2023-01-25T05:24:59.346Z,8.77
2023-01-25T05:27:26.143Z,10.30
2023-01-25T05:29:55.782Z,9.10
2023-01-25T05:34:49.703Z,8.52
2023-01-25T05:37:18.663Z,7.57
2023-01-25T05:39:45.627Z,7.68
2023-01-25T05:42:18.034Z,6.82
2023-01-25T05:44:47.493Z,7.88
2023-01-25T05:47:16.733Z,7.72
2023-01-25T05:49:43.673Z,6.95
2023-01-25T05:52:17.510Z,7.30
2023-01-25T05:54:45.358Z,6.70
2023-01-25T05:57:14.064Z,7.57
2023-01-25T05:59:40.760Z,6.43
2023-01-25T06:02:07.560Z,7.00
2023-01-25T06:04:34.286Z,7.65
2023-01-25T06:07:00.937Z,7.05
2023-01-25T06:09:28.733Z,6.97
2023-01-25T06:11:56.446Z,7.70
2023-01-25T06:14:23.884Z,6.93
2023-01-25T06:16:51.723Z,6.63
2023-01-25T06:19:18.378Z,6.65
2023-01-25T06:21:45.046Z,7.93
2023-01-25T06:24:11.826Z,9.63
2023-01-25T06:26:39.596Z,7.97
2023-01-25T06:29:07.042Z,7.63
2023-01-25T06:31:34.991Z,11.82
2023-01-25T06:34:04.613Z,11.40
2023-01-25T06:36:31.349Z,12.82
2023-01-25T06:38:59.229Z,8.98
2023-01-25T06:41:26.029Z,7.80
2023-01-25T06:43:53.227Z,7.47
2023-01-25T06:46:20.401Z,11.27
2023-01-25T06:48:47.224Z,10.38
2023-01-25T06:51:15.034Z,11.27
2023-01-25T06:53:45.380Z,12.20
2023-01-25T06:56:15.149Z,15.32
2023-01-25T06:58:41.909Z,12.73
2023-01-25T07:01:20.393Z,10.02
2023-01-25T07:03:51.995Z,9.40
2023-01-25T07:06:18.998Z,7.63
2023-01-25T07:08:45.982Z,8.95
2023-01-25T07:11:14.087Z,10.23
2023-01-25T07:13:42.375Z,9.00
2023-01-25T07:16:15.304Z,9.60
2023-01-25T07:18:42.446Z,9.70
2023-01-25T07:21:18.267Z,9.98
2023-01-25T07:26:24.888Z,10.57
2023-01-25T07:28:55.176Z,10.20
2023-01-25T07:31:22.628Z,8.88
2023-01-25T07:33:50.446Z,9.40
2023-01-25T07:36:17.504Z,9.27
2023-01-25T07:38:44.356Z,7.65
2023-01-25T07:41:11.209Z,10.20
2023-01-25T07:43:38.038Z,8.07
2023-01-25T07:46:07.709Z,8.45
2023-01-25T07:48:34.599Z,9.40
2023-01-25T07:51:21.043Z,8.05
2023-01-25T07:53:48.070Z,9.98
2023-01-25T07:56:14.747Z,8.32
2023-01-25T07:58:41.523Z,9.02
2023-01-25T08:01:09.189Z,18.40
2023-01-25T08:03:36.074Z,12.95
2023-01-25T08:06:05.392Z,6.97
2023-01-25T08:08:34.573Z,7.53
2023-01-25T08:11:13.572Z,6.68
2023-01-25T08:13:41.220Z,8.13
2023-01-25T08:16:07.897Z,8.10
2023-01-25T08:18:35.973Z,5.88
2023-01-25T08:21:03.549Z,7.28
2023-01-25T08:23:30.639Z,7.55
2023-01-25T08:26:05.155Z,8.32
2023-01-25T08:28:32.151Z,8.45
2023-01-25T08:31:10.395Z,8.77
2023-01-25T08:33:37.950Z,9.10
2023-01-25T08:36:05.365Z,6.70
2023-01-25T08:38:32.635Z,7.28
2023-01-25T08:41:10.801Z,7.68
2023-01-25T08:43:37.694Z,7.78
2023-01-25T08:46:05.167Z,7.28
2023-01-25T08:48:32.396Z,6.20
2023-01-25T08:51:00.846Z,7.35
2023-01-25T08:53:28.968Z,6.40
2023-01-25T08:55:55.683Z,6.75
2023-01-25T08:58:22.644Z,11.50
2023-01-25T09:00:50.966Z,7.90
2023-01-25T09:03:18.341Z,8.73
2023-01-25T09:05:45.733Z,7.65
2023-01-25T09:08:12.357Z,8.50
2023-01-25T09:10:39.168Z,7.15
2023-01-25T09:13:07.731Z,6.97
2023-01-25T09:18:02.039Z,6.00
2023-01-25T09:20:30.576Z,6.78
2023-01-25T09:22:59.963Z,9.27
2023-01-25T09:25:26.774Z,8.07
2023-01-25T09:27:55.781Z,6.47
2023-01-25T09:30:33.654Z,7.13
2023-01-25T09:33:05.027Z,8.77
2023-01-25T09:35:31.783Z,9.10
2023-01-25T09:37:58.586Z,7.43
2023-01-25T09:40:28.171Z,9.68
2023-01-25T09:43:07.096Z,7.72
2023-01-25T09:45:36.137Z,7.25
2023-01-25T09:48:22.876Z,7.00
2023-01-25T09:51:24.917Z,7.00
2023-01-25T09:53:53.777Z,6.80
2023-01-25T09:56:26.762Z,6.32
2023-01-25T09:58:59.543Z,8.75
2023-01-25T10:01:47.352Z,7.05
2023-01-25T10:04:20.244Z,6.95
2023-01-25T10:07:00.104Z,7.30
2023-01-25T10:09:30.509Z,7.22
2023-01-25T10:11:59.896Z,7.68
2023-01-25T10:14:27.335Z,8.10
2023-01-25T10:17:06.450Z,7.05
2023-01-25T10:19:49.008Z,6.82
2023-01-25T10:22:22.469Z,6.70
2023-01-25T10:25:25.598Z,5.53
2023-01-25T10:28:33.061Z,6.15
2023-01-25T10:31:06.913Z,6.50
2023-01-25T10:33:38.137Z,6.07
2023-01-25T10:36:06.556Z,7.65
2023-01-25T10:38:38.840Z,6.72
2023-01-25T10:41:28.521Z,6.15
2023-01-25T10:44:21.680Z,6.75
2023-01-25T10:47:27.771Z,6.15
2023-01-25T10:49:59.021Z,5.53
2023-01-25T10:52:30.911Z,6.22
2023-01-25T10:55:26.228Z,5.13
2023-01-25T10:57:58.045Z,6.13
2023-01-25T11:00:25.481Z,6.50
2023-01-25T11:02:53.938Z,6.22
2023-01-25T11:05:36.444Z,12.77
2023-01-25T11:08:24.762Z,5.65
2023-01-25T11:10:52.417Z,6.13
2023-01-25T11:13:29.607Z,12.75
2023-01-25T11:16:04.873Z,7.97
2023-01-25T11:18:34.997Z,7.05
2023-01-25T11:21:04.781Z,6.78
2023-01-25T11:23:32.388Z,12.70
2023-01-25T11:26:18.905Z,7.10
2023-01-25T11:28:49.227Z,5.57
2023-01-25T11:31:20.668Z,7.28
2023-01-25T11:33:47.705Z,7.47
2023-01-25T11:36:29.387Z,6.47
2023-01-25T11:39:08.664Z,10.35
2023-01-25T11:41:53.615Z,7.65
2023-01-25T11:44:20.236Z,7.28
2023-01-25T11:46:57.056Z,7.47
2023-01-25T11:49:56.537Z,6.68
2023-01-25T11:52:31.550Z,6.90
2023-01-25T11:55:10.321Z,8.10
2023-01-25T11:58:02.000Z,8.98
2023-01-25T12:00:53.329Z,6.55
2023-01-25T12:03:53.984Z,7.38
2023-01-25T12:06:39.830Z,7.72
2023-01-25T12:09:06.566Z,7.55
2023-01-25T12:11:44.956Z,7.88
2023-01-25T12:14:26.906Z,7.05
2023-01-25T12:16:56.167Z,7.25
2023-01-25T12:19:44.517Z,7.70
2023-01-25T12:22:44.522Z,6.88
2023-01-25T12:25:32.774Z,8.88
2023-01-25T12:28:06.413Z,9.27
2023-01-25T12:30:47.407Z,8.10
2023-01-25T12:33:22.718Z,9.30
2023-01-25T12:38:27.104Z,6.45
2023-01-25T12:41:19.575Z,6.88
2023-01-25T12:43:52.790Z,8.13
2023-01-25T12:46:45.887Z,9.55
2023-01-25T12:49:20.441Z,7.78
2023-01-25T12:51:47.465Z,8.50
2023-01-25T12:54:29.243Z,7.22
2023-01-25T12:56:59.057Z,10.20
2023-01-25T12:59:34.141Z,8.88
2023-01-25T13:02:41.238Z,8.52
2023-01-25T13:05:38.909Z,9.38
2023-01-25T13:08:41.108Z,7.80
2023-01-25T13:11:20.912Z,9.95
2023-01-25T13:13:50.056Z,9.52
2023-01-25T13:16:38.932Z,7.72
2023-01-25T13:19:19.515Z,8.82
2023-01-25T13:21:48.116Z,8.77
2023-01-25T13:24:25.408Z,7.85
2023-01-25T13:26:54.889Z,8.80
2023-01-25T13:29:49.414Z,27.23
2023-01-25T13:32:25.215Z,7.80
2023-01-25T13:34:54.712Z,7.43
2023-01-25T13:37:23.120Z,7.90
2023-01-25T13:40:07.831Z,7.97
2023-01-25T13:42:37.110Z,8.75
2023-01-25T13:45:03.809Z,9.65
2023-01-25T13:47:33.369Z,8.02
2023-01-25T13:52:35.100Z,9.52
2023-01-25T13:55:02.159Z,10.50
2023-01-25T13:57:31.012Z,7.80
2023-01-25T14:00:11.666Z,10.30
2023-01-25T14:02:39.582Z,8.95
2023-01-25T14:05:18.146Z,9.30
2023-01-25T14:07:48.850Z,10.25
2023-01-25T14:10:23.375Z,11.25
2023-01-25T14:12:57.857Z,12.38
2023-01-25T14:15:30.088Z,11.55
2023-01-25T14:18:19.208Z,11.73
2023-01-25T14:20:51.422Z,12.15
2023-01-25T14:23:22.508Z,18.63
2023-01-25T14:25:49.235Z,10.65
2023-01-25T14:28:17.506Z,10.10
2023-01-25T14:30:48.208Z,11.80
2023-01-25T14:33:21.703Z,13.38
2023-01-25T14:35:56.407Z,10.05
2023-01-25T14:38:39.503Z,11.23
2023-01-25T14:43:32.946Z,10.85
2023-01-25T14:46:00.212Z,10.02
2023-01-25T14:48:41.256Z,10.77
2023-01-25T14:51:17.064Z,9.68
2023-01-25T14:56:19.161Z,10.63
2023-01-25T14:58:50.863Z,10.20
2023-01-25T15:01:45.774Z,10.55
2023-01-25T15:04:13.249Z,11.63
2023-01-25T15:06:48.939Z,10.55
2023-01-25T15:09:42.517Z,10.23
2023-01-25T15:12:27.993Z,12.05
2023-01-25T15:14:56.287Z,10.75
2023-01-25T15:17:46.473Z,13.48
2023-01-25T15:20:43.625Z,12.50
2023-01-25T15:23:23.882Z,12.18
2023-01-25T15:25:55.592Z,12.52
2023-01-25T15:28:23.906Z,13.48
2023-01-25T15:30:51.734Z,15.35
2023-01-25T15:33:26.387Z,10.95
2023-01-25T15:35:54.488Z,12.23
2023-01-25T15:38:22.041Z,12.77
2023-01-25T15:40:50.317Z,11.80
2023-01-25T15:43:18.575Z,10.63
2023-01-25T15:45:48.189Z,13.40
2023-01-25T15:48:17.558Z,11.32
2023-01-25T15:50:44.252Z,11.77
2023-01-25T15:53:21.134Z,11.02
2023-01-25T15:55:51.227Z,11.73
2023-01-25T15:58:30.490Z,13.13
2023-01-25T16:00:57.368Z,12.63
2023-01-25T16:03:24.020Z,12.45
2023-01-25T16:05:57.599Z,10.65
2023-01-25T16:08:25.632Z,13.10
2023-01-25T16:10:55.272Z,13.23
2023-01-25T16:15:53.764Z,12.20
2023-01-25T16:18:20.457Z,16.25
2023-01-25T16:20:47.271Z,13.38
2023-01-25T16:23:14.108Z,14.15
2023-01-25T16:25:46.040Z,14.40
2023-01-25T16:28:16.216Z,14.05
2023-01-25T16:30:45.230Z,13.10
2023-01-25T16:33:12.552Z,14.05
2023-01-25T16:35:39.265Z,17.80
2023-01-25T16:38:05.941Z,18.42
2023-01-25T16:40:39.874Z,13.07
2023-01-25T16:43:06.592Z,14.07
2023-01-25T16:45:33.376Z,12.27
2023-01-25T16:48:01.883Z,12.80
2023-01-25T16:50:28.739Z,12.88
2023-01-25T16:52:56.264Z,13.65
2023-01-25T16:55:22.973Z,14.93
2023-01-25T16:57:50.647Z,14.52
2023-01-25T17:00:17.739Z,14.55
2023-01-25T17:02:58.115Z,12.82
2023-01-25T17:05:30.353Z,12.50
2023-01-25T17:07:57.347Z,15.23
2023-01-25T17:10:24.279Z,18.92
2023-01-25T17:12:51.373Z,13.95
2023-01-25T17:15:20.101Z,11.57
2023-01-25T17:17:46.828Z,13.10
2023-01-25T17:20:13.553Z,17.92
2023-01-25T17:22:42.000Z,14.65
2023-01-25T17:25:08.769Z,12.00
2023-01-25T17:27:35.472Z,11.30
2023-01-25T17:30:02.253Z,12.80
2023-01-25T17:32:29.584Z,11.73
2023-01-25T17:34:59.170Z,13.10
2023-01-25T17:37:26.277Z,14.23
2023-01-25T17:39:53.686Z,13.30
2023-01-25T17:42:22.151Z,13.40
2023-01-25T17:44:48.890Z,11.57
2023-01-25T17:47:15.510Z,11.80
2023-01-25T17:49:42.172Z,11.93
2023-01-25T17:52:08.912Z,12.75
2023-01-25T17:54:36.393Z,11.82
2023-01-25T17:57:03.131Z,12.00
2023-01-25T17:59:29.976Z,11.93
2023-01-25T18:01:56.785Z,13.23
2023-01-25T18:04:23.527Z,12.07
2023-01-25T18:06:50.178Z,13.50
2023-01-25T18:09:18.002Z,11.88
2023-01-25T18:11:44.845Z,13.35
2023-01-25T18:14:15.313Z,11.13
2023-01-25T18:16:42.252Z,10.68
2023-01-25T18:19:09.479Z,13.57
2023-01-25T18:21:36.775Z,13.10
2023-01-25T18:24:26.128Z,10.48
2023-01-25T18:26:59.376Z,10.93
2023-01-25T18:29:59.097Z,10.10
2023-01-25T18:32:26.594Z,10.52
2023-01-25T18:34:53.430Z,10.60
2023-01-25T18:37:25.655Z,11.30
2023-01-25T18:39:53.893Z,9.82
2023-01-25T18:42:22.100Z,10.75
2023-01-25T18:44:48.831Z,11.05
2023-01-25T18:47:19.971Z,9.80
2023-01-25T18:49:50.611Z,10.23
2023-01-25T18:52:18.729Z,11.68
2023-01-25T18:54:45.913Z,11.50
2023-01-25T18:57:13.652Z,13.23
2023-01-25T18:59:41.038Z,12.57
2023-01-25T19:02:09.741Z,10.98
2023-01-25T19:04:36.477Z,10.63
2023-01-25T19:07:03.321Z,11.05
2023-01-25T19:09:30.251Z,10.07
2023-01-25T19:11:57.195Z,11.23
2023-01-25T19:14:24.468Z,11.52
2023-01-25T19:16:51.224Z,12.88
2023-01-25T19:19:18.460Z,11.25
2023-01-25T19:21:45.174Z,11.65
2023-01-25T19:24:13.502Z,11.82
2023-01-25T19:26:40.593Z,12.23
2023-01-25T19:29:08.384Z,11.50
2023-01-25T19:31:37.388Z,10.85
2023-01-25T19:34:05.982Z,11.40
2023-01-25T19:36:36.192Z,11.43
2023-01-25T19:39:05.559Z,10.05
2023-01-25T19:41:33.476Z,10.73
2023-01-25T19:44:03.326Z,13.93
2023-01-25T19:46:49.844Z,10.50
2023-01-25T19:49:16.876Z,11.90
2023-01-25T19:51:48.920Z,10.80
2023-01-25T19:54:17.744Z,10.48
2023-01-25T19:56:46.645Z,10.55
2023-01-25T19:59:15.831Z,10.77
2023-01-25T20:01:44.259Z,10.00
2023-01-25T20:04:22.676Z,9.65
2023-01-25T20:06:50.591Z,9.20
2023-01-25T20:09:18.797Z,10.73
2023-01-25T20:11:46.996Z,10.68
2023-01-25T20:14:13.964Z,8.75
2023-01-25T20:16:40.960Z,9.15
2023-01-25T20:19:13.025Z,11.10
2023-01-25T20:21:40.133Z,9.85
2023-01-25T20:24:10.224Z,11.82
2023-01-25T20:26:39.215Z,10.73
2023-01-25T20:29:07.174Z,10.38
2023-01-25T20:31:39.391Z,9.52
2023-01-25T20:34:09.995Z,10.82
2023-01-25T20:36:36.879Z,9.13
2023-01-25T20:39:04.980Z,10.50
2023-01-25T20:41:31.804Z,8.90
2023-01-25T20:44:07.297Z,8.35
2023-01-25T20:46:35.210Z,10.75
2023-01-25T20:49:02.241Z,8.63
2023-01-25T20:51:29.659Z,8.68
2023-01-25T20:53:57.541Z,8.45
2023-01-25T20:56:24.748Z,10.95
2023-01-25T20:58:52.044Z,10.18
2023-01-25T21:01:32.399Z,10.50
2023-01-25T21:03:59.065Z,10.93
2023-01-25T21:06:27.397Z,9.77
2023-01-25T21:08:56.650Z,8.32
2023-01-25T21:11:23.652Z,9.18
2023-01-25T21:13:50.355Z,9.45
2023-01-25T21:16:21.608Z,12.57
2023-01-25T21:18:57.650Z,9.95
2023-01-25T21:21:29.399Z,9.57
2023-01-25T21:24:02.052Z,8.93
2023-01-25T21:26:30.839Z,8.82
2023-01-25T21:28:59.222Z,8.95
2023-01-25T21:31:27.983Z,10.02
2023-01-25T21:33:55.533Z,8.15
2023-01-25T21:36:22.811Z,7.78
2023-01-25T21:38:50.820Z,7.88
2023-01-25T21:41:24.809Z,8.13
2023-01-25T21:44:11.655Z,8.18
2023-01-25T21:46:39.025Z,7.93
2023-01-25T21:49:27.462Z,8.05
2023-01-25T21:51:56.714Z,7.47
2023-01-25T21:54:35.088Z,8.18
2023-01-25T21:57:05.311Z,8.85
2023-01-25T21:59:32.047Z,7.95
2023-01-25T22:01:58.951Z,7.95
2023-01-25T22:04:25.868Z,7.38
2023-01-25T22:06:54.542Z,7.97
2023-01-25T22:09:22.474Z,7.50
2023-01-25T22:11:49.695Z,8.60
2023-01-25T22:14:19.240Z,7.63
2023-01-25T22:19:13.221Z,7.78
2023-01-25T22:21:39.920Z,6.80
2023-01-25T22:24:07.332Z,6.75
2023-01-25T22:26:46.214Z,7.63
2023-01-25T22:29:13.779Z,7.80
2023-01-25T22:31:41.393Z,9.73
2023-01-25T22:34:08.452Z,8.50
2023-01-25T22:36:40.784Z,8.23
2023-01-25T22:39:07.546Z,7.47
2023-01-25T22:41:37.070Z,7.55
2023-01-25T22:44:04.463Z,7.80
2023-01-25T22:46:32.381Z,8.52
2023-01-25T22:48:59.528Z,7.97
2023-01-25T22:51:28.304Z,7.72
2023-01-25T22:53:55.586Z,9.00
2023-01-25T22:56:24.671Z,8.18
2023-01-25T22:58:51.911Z,6.93
2023-01-25T23:01:22.481Z,6.50
2023-01-25T23:03:49.978Z,7.80
2023-01-25T23:06:19.073Z,7.22
2023-01-25T23:08:46.345Z,7.03
2023-01-25T23:11:15.607Z,6.43
2023-01-25T23:14:05.579Z,7.05
2023-01-25T23:16:33.238Z,7.10
2023-01-25T23:19:00.372Z,7.15
2023-01-25T23:21:28.733Z,6.95
2023-01-25T23:23:56.825Z,7.32
2023-01-25T23:26:24.102Z,6.18
2023-01-25T23:28:53.209Z,5.80
2023-01-25T23:31:24.441Z,6.10
2023-01-25T23:33:58.415Z,5.75
2023-01-25T23:36:30.257Z,6.90
2023-01-25T23:38:57.672Z,6.55
2023-01-25T23:41:27.602Z,7.63
2023-01-25T23:43:55.985Z,7.43
2023-01-25T23:46:24.453Z,7.05
2023-01-25T23:48:51.251Z,7.07
2023-01-25T23:51:18.734Z,7.47
2023-01-25T23:53:45.667Z,7.75
2023-01-25T23:56:14.441Z,7.68
2023-01-25T23:58:41.576Z,6.85
